Stockett, Montana
Current Conditions -  °F | °C
As of 6:56 AM on Sunday 23 Nov 2014 (Local Time) from KGFA Reporting Station
Broken Clouds Broken Clouds  
Wind Chill: 17°   Ceiling: 8500
Heat Index: 26°   Visibility: 10mi
Dew Point: 22°   Wind: 9mph
Humidity: 86%   Direction: 210°SSW
Pressure: 29.89"   Gusts: NA
Location:  47.36°N, 111.17°W
Report Text: KGFA 231356Z AUTO 21008KT 10SM BKN085 BKN100 BKN130 M03/M05 A2989 RMK AO2 SLP153 T10341055
Loading
Personal Weather Stations






























Interactive Weather Map New forecast layout! Learn more

10-Day Weather Forecast

Advertisements
Track Severe Weather on mobile